Time;durP1;ratioP1;P1;durP2;ratioP2;P2;SDS_P1;SDS_P2;PMS_P1;PMS_P2;Temp;Humidity;BMP_temperature;BMP_pressure;BME280_temperature;BME280_humidity;BME280_pressure;Samples;Min_cycle;Max_cycle;Signal;HPM_P1;HPM_P2
2023/01/23 00:01:09;;;;;;;1.02;1.02;;;;;;;;;;4959591;29;20133;-90
2023/01/23 00:03:36;;;;;;;0.82;0.82;;;;;;;;;;4959711;29;20055;-90
2023/01/23 00:06:04;;;;;;;3.10;2.72;;;;;;;;;;4941336;29;20056;-89
2023/01/23 00:08:31;;;;;;;1.40;1.38;;;;;;;;;;4940182;29;20058;-90
2023/01/23 00:10:58;;;;;;;2.65;2.55;;;;;;;;;;4940609;29;20070;-90
2023/01/23 00:13:24;;;;;;;2.30;2.20;;;;;;;;;;4939541;29;20489;-90
2023/01/23 00:15:52;;;;;;;1.63;1.55;;;;;;;;;;4939949;29;20048;-90
2023/01/23 00:18:19;;;;;;;1.67;1.58;;;;;;;;;;4939856;29;20060;-90
2023/01/23 00:20:46;;;;;;;1.42;1.38;;;;;;;;;;4939818;29;20059;-89
2023/01/23 00:23:12;;;;;;;2.78;1.48;;;;;;;;;;4940012;29;20103;-90
2023/01/23 00:25:39;;;;;;;1.60;1.50;;;;;;;;;;4939506;29;20102;-89
2023/01/23 00:28:05;;;;;;;2.38;1.52;;;;;;;;;;4939758;29;20048;-89
2023/01/23 00:30:32;;;;;;;3.20;3.00;;;;;;;;;;4939538;29;20126;-89
2023/01/23 00:32:59;;;;;;;2.13;2.03;;;;;;;;;;4939411;29;20107;-90
2023/01/23 00:35:27;;;;;;;2.00;1.35;;;;;;;;;;4939248;29;20466;-90
2023/01/23 00:37:53;;;;;;;2.25;2.00;;;;;;;;;;4939147;29;20056;-90
2023/01/23 00:40:20;;;;;;;3.03;2.78;;;;;;;;;;4939764;29;20055;-91
2023/01/23 00:42:46;;;;;;;1.50;1.40;;;;;;;;;;4939905;29;20052;-90
2023/01/23 00:45:12;;;;;;;0.75;0.75;;;;;;;;;;4938926;29;20558;-89
2023/01/23 00:47:39;;;;;;;4.10;3.50;;;;;;;;;;4939214;29;20055;-90
2023/01/23 00:50:06;;;;;;;2.08;1.98;;;;;;;;;;4938888;29;20047;-90
2023/01/23 00:52:34;;;;;;;1.23;1.23;;;;;;;;;;4940318;29;20044;-90
2023/01/23 00:55:00;;;;;;;0.90;0.90;;;;;;;;;;4939159;29;20505;-89
2023/01/23 00:57:27;;;;;;;1.77;1.67;;;;;;;;;;4939330;29;20060;-89
2023/01/23 00:59:53;;;;;;;2.42;1.92;;;;;;;;;;4938950;29;20055;-89
2023/01/23 01:02:20;;;;;;;2.80;2.70;;;;;;;;;;4939868;29;20063;-89
2023/01/23 01:04:46;;;;;;;0.95;0.95;;;;;;;;;;4940077;29;20051;-89
2023/01/23 01:07:13;;;;;;;1.05;1.05;;;;;;;;;;4937823;29;20461;-89
2023/01/23 01:09:41;;;;;;;1.05;1.05;;;;;;;;;;4940029;29;20059;-90
2023/01/23 01:12:08;;;;;;;1.90;1.80;;;;;;;;;;4938906;29;20079;-90
2023/01/23 01:14:34;;;;;;;1.40;1.33;;;;;;;;;;4939677;29;20449;-89
2023/01/23 01:17:01;;;;;;;2.08;1.98;;;;;;;;;;4939019;29;20055;-89
2023/01/23 01:19:28;;;;;;;2.08;1.90;;;;;;;;;;4939571;29;20095;-89
2023/01/23 01:21:54;;;;;;;1.48;1.42;;;;;;;;;;4939711;29;20052;-89
2023/01/23 01:24:21;;;;;;;0.98;0.98;;;;;;;;;;4939609;29;20056;-89
2023/01/23 01:26:49;;;;;;;0.85;0.85;;;;;;;;;;4938809;29;20054;-89
2023/01/23 01:29:15;;;;;;;1.95;1.85;;;;;;;;;;4939383;29;20051;-89
2023/01/23 01:31:42;;;;;;;2.63;2.53;;;;;;;;;;4939057;29;20055;-89
2023/01/23 01:34:08;;;;;;;2.30;2.13;;;;;;;;;;4944756;29;20060;-89
2023/01/23 01:36:35;;;;;;;1.80;1.70;;;;;;;;;;4938237;29;20047;-88
2023/01/23 01:39:01;;;;;;;2.22;2.13;;;;;;;;;;4938251;29;20047;-89
2023/01/23 01:41:28;;;;;;;3.33;3.17;;;;;;;;;;4938237;29;20466;-87
2023/01/23 01:43:56;;;;;;;3.25;1.85;;;;;;;;;;4937845;29;20052;-87
2023/01/23 01:46:23;;;;;;;2.90;2.70;;;;;;;;;;4938150;29;20134;-88
2023/01/23 01:48:51;;;;;;;1.25;1.23;;;;;;;;;;4938052;29;20091;-88
2023/01/23 01:51:24;;;;;;;1.67;1.60;;;;;;;;;;4937858;29;20461;-88
2023/01/23 01:53:53;;;;;;;2.05;1.95;;;;;;;;;;4937803;29;20051;-88
2023/01/23 01:56:20;;;;;;;2.40;2.20;;;;;;;;;;4938210;29;20185;-88
2023/01/23 01:58:48;;;;;;;1.75;1.70;;;;;;;;;;4937355;29;20055;-88
2023/01/23 02:01:16;;;;;;;2.15;2.05;;;;;;;;;;4937992;29;20059;-88
2023/01/23 02:03:43;;;;;;;0.98;0.98;;;;;;;;;;4937988;29;20486;-88
2023/01/23 02:06:10;;;;;;;3.10;2.90;;;;;;;;;;4937606;29;20055;-88
2023/01/23 02:08:39;;;;;;;2.25;2.10;;;;;;;;;;4937374;29;20553;-88
2023/01/23 02:11:05;;;;;;;1.85;1.77;;;;;;;;;;4937392;29;20059;-88
2023/01/23 02:13:34;;;;;;;2.40;1.40;;;;;;;;;;4937331;29;20052;-88
2023/01/23 02:16:02;;;;;;;2.40;2.22;;;;;;;;;;4937239;29;20055;-87
2023/01/23 02:18:31;;;;;;;1.73;1.63;;;;;;;;;;4936729;29;20115;-87
2023/01/23 02:20:59;;;;;;;1.52;1.42;;;;;;;;;;4937358;29;20457;-87
2023/01/23 02:23:29;;;;;;;3.35;2.10;;;;;;;;;;4941324;29;20099;-88
2023/01/23 02:25:59;;;;;;;2.80;2.60;;;;;;;;;;4956530;29;20114;-89
2023/01/23 02:28:35;;;;;;;1.73;1.63;;;;;;;;;;4956272;29;20134;-88
2023/01/23 02:31:02;;;;;;;3.22;1.40;;;;;;;;;;4956620;29;20460;-88
2023/01/23 02:33:43;;;;;;;1.88;1.77;;;;;;;;;;4956608;29;20059;-88
2023/01/23 02:36:10;;;;;;;1.27;1.27;;;;;;;;;;4956049;29;20138;-88
2023/01/23 02:38:40;;;;;;;1.60;1.50;;;;;;;;;;4955969;29;20054;-88
2023/01/23 02:41:09;;;;;;;1.40;1.35;;;;;;;;;;4956320;28;20051;-87
2023/01/23 02:43:37;;;;;;;1.73;1.63;;;;;;;;;;4956518;29;20047;-88
2023/01/23 02:46:04;;;;;;;2.42;2.33;;;;;;;;;;4956259;29;20432;-88
2023/01/23 02:48:30;;;;;;;1.80;1.70;;;;;;;;;;4956186;29;20047;-90
2023/01/23 02:50:57;;;;;;;1.73;1.45;;;;;;;;;;4956327;29;20047;-89
2023/01/23 02:53:24;;;;;;;1.70;1.60;;;;;;;;;;4956009;29;20059;-88
2023/01/23 02:55:51;;;;;;;1.67;1.42;;;;;;;;;;4956260;29;20074;-89
2023/01/23 03:01:03;;;;;;;1.95;1.85;;;;;;;;;;4956340;29;20057;-89
2023/01/23 03:03:29;;;;;;;1.75;1.65;;;;;;;;;;4956357;29;20524;-89
2023/01/23 03:05:56;;;;;;;3.25;3.10;;;;;;;;;;4956533;29;20048;-89
2023/01/23 03:08:32;;;;;;;2.05;1.85;;;;;;;;;;4955639;29;20706;-88
2023/01/23 03:10:58;;;;;;;2.15;2.05;;;;;;;;;;4955474;29;20047;-87
2023/01/23 03:13:26;;;;;;;2.17;1.98;;;;;;;;;;4955746;29;20051;-87
2023/01/23 03:15:53;;;;;;;1.90;1.80;;;;;;;;;;4955304;28;20070;-88
2023/01/23 03:18:20;;;;;;;1.48;1.38;;;;;;;;;;4955900;29;20054;-88
2023/01/23 03:20:46;;;;;;;2.83;2.63;;;;;;;;;;4955865;29;20051;-88
2023/01/23 03:23:13;;;;;;;1.27;1.25;;;;;;;;;;4956100;29;20121;-87
2023/01/23 03:25:42;;;;;;;1.85;1.75;;;;;;;;;;4956083;29;20044;-89
2023/01/23 03:30:11;;;;;;;2.03;1.90;;;;;;;;;;4955787;29;20055;-88
2023/01/23 03:30:56;;;;;;;1.55;1.45;;;;;;;;;;4956541;28;20052;-90
2023/01/23 03:33:23;;;;;;;1.65;1.55;;;;;;;;;;4959415;28;20055;-88
2023/01/23 03:35:49;;;;;;;2.70;2.33;;;;;;;;;;4959191;29;20493;-88
2023/01/23 03:38:18;;;;;;;1.55;1.25;;;;;;;;;;4959592;29;20462;-88
2023/01/23 03:43:30;;;;;;;1.95;1.85;;;;;;;;;;4952931;29;20043;-88
2023/01/23 03:45:58;;;;;;;2.05;1.90;;;;;;;;;;4959511;29;20118;-88
2023/01/23 03:48:25;;;;;;;1.02;1.02;;;;;;;;;;4958970;29;20055;-87
2023/01/23 03:50:51;;;;;;;5.85;3.83;;;;;;;;;;4958464;29;20413;-87
2023/01/23 03:53:18;;;;;;;2.00;1.90;;;;;;;;;;4958876;29;20106;-87
2023/01/23 03:55:44;;;;;;;2.08;1.98;;;;;;;;;;4959133;29;20051;-87
2023/01/23 03:58:11;;;;;;;1.58;1.48;;;;;;;;;;4958820;29;20114;-87
2023/01/23 04:00:37;;;;;;;1.73;1.63;;;;;;;;;;4958921;29;20051;-87
2023/01/23 04:03:05;;;;;;;2.92;2.70;;;;;;;;;;4958934;29;20055;-87
2023/01/23 04:05:32;;;;;;;1.95;1.85;;;;;;;;;;4958810;29;20094;-87
2023/01/23 04:07:58;;;;;;;2.22;2.13;;;;;;;;;;4958883;29;20416;-87
2023/01/23 04:10:25;;;;;;;2.25;2.15;;;;;;;;;;4958622;29;20063;-87
2023/01/23 04:12:52;;;;;;;2.92;1.90;;;;;;;;;;4958777;29;20059;-86
2023/01/23 04:15:18;;;;;;;1.65;1.55;;;;;;;;;;4957909;29;20054;-87
2023/01/23 04:17:45;;;;;;;1.35;1.25;;;;;;;;;;4958109;29;20062;-87
2023/01/23 04:20:13;;;;;;;2.72;2.17;;;;;;;;;;4958912;29;20457;-87
2023/01/23 04:22:40;;;;;;;1.10;1.05;;;;;;;;;;4958050;29;20138;-87
2023/01/23 04:25:07;;;;;;;2.78;2.58;;;;;;;;;;4958414;29;20055;-87
2023/01/23 04:27:33;;;;;;;1.50;1.40;;;;;;;;;;4959002;29;20069;-89
2023/01/23 04:30:00;;;;;;;1.52;1.42;;;;;;;;;;4958640;29;20106;-89
2023/01/23 04:32:26;;;;;;;2.03;1.92;;;;;;;;;;4958898;29;20047;-89
2023/01/23 04:34:53;;;;;;;3.75;2.95;;;;;;;;;;4958618;29;20047;-89
2023/01/23 04:37:20;;;;;;;2.50;2.40;;;;;;;;;;4958660;29;20043;-89
2023/01/23 04:39:47;;;;;;;1.50;1.42;;;;;;;;;;4958052;29;20051;-89
2023/01/23 04:42:13;;;;;;;1.55;1.55;;;;;;;;;;4958096;28;20087;-88
2023/01/23 04:44:40;;;;;;;2.08;1.98;;;;;;;;;;4957995;29;20524;-87
2023/01/23 04:47:06;;;;;;;1.92;1.83;;;;;;;;;;4958250;29;20054;-87
2023/01/23 04:49:33;;;;;;;1.35;1.33;;;;;;;;;;4958028;29;20062;-87
2023/01/23 04:51:59;;;;;;;2.58;2.38;;;;;;;;;;4957989;29;20114;-87
2023/01/23 04:54:27;;;;;;;2.08;1.98;;;;;;;;;;4958013;29;20122;-88
2023/01/23 04:56:54;;;;;;;4.50;4.30;;;;;;;;;;4958078;29;20059;-88
2023/01/23 04:59:20;;;;;;;2.17;2.08;;;;;;;;;;4958456;29;20063;-88
2023/01/23 05:01:47;;;;;;;6.30;5.88;;;;;;;;;;4949888;29;20056;-88
2023/01/23 05:04:13;;;;;;;2.83;2.72;;;;;;;;;;4938863;29;20101;-88
2023/01/23 05:06:40;;;;;;;2.78;2.63;;;;;;;;;;4938660;29;20501;-88
2023/01/23 05:09:07;;;;;;;2.70;2.53;;;;;;;;;;4938389;29;20116;-88
2023/01/23 05:11:35;;;;;;;1.92;1.83;;;;;;;;;;4938344;29;20138;-88
2023/01/23 05:14:01;;;;;;;2.38;1.92;;;;;;;;;;4938415;29;20052;-88
2023/01/23 05:16:28;;;;;;;2.70;2.47;;;;;;;;;;4938346;29;20118;-88
2023/01/23 05:18:54;;;;;;;2.80;2.60;;;;;;;;;;4938032;29;20048;-87
2023/01/23 05:21:20;;;;;;;3.83;3.53;;;;;;;;;;4938190;29;20051;-86
2023/01/23 05:23:47;;;;;;;1.65;1.58;;;;;;;;;;4938107;29;20055;-86
2023/01/23 05:26:13;;;;;;;3.20;3.00;;;;;;;;;;4938809;29;20051;-87
2023/01/23 05:28:41;;;;;;;3.60;2.90;;;;;;;;;;4937852;29;20502;-87
2023/01/23 05:31:08;;;;;;;3.47;3.17;;;;;;;;;;4937914;29;20055;-87
2023/01/23 05:33:34;;;;;;;4.57;4.28;;;;;;;;;;4937793;29;20115;-87
2023/01/23 05:36:01;;;;;;;2.75;2.60;;;;;;;;;;4937550;29;20115;-87
2023/01/23 05:38:28;;;;;;;2.15;2.05;;;;;;;;;;4937908;29;20099;-87
2023/01/23 05:40:54;;;;;;;2.45;2.20;;;;;;;;;;4938231;29;20055;-87
2023/01/23 05:43:21;;;;;;;3.35;2.00;;;;;;;;;;4937788;29;20067;-87
2023/01/23 05:45:49;;;;;;;2.58;2.38;;;;;;;;;;4937906;29;20068;-86
2023/01/23 05:48:15;;;;;;;2.30;2.15;;;;;;;;;;4937776;29;20557;-87
2023/01/23 05:50:42;;;;;;;4.60;2.25;;;;;;;;;;4937569;29;20114;-88
2023/01/23 05:53:08;;;;;;;3.58;3.25;;;;;;;;;;4937118;29;20048;-87
2023/01/23 05:55:37;;;;;;;3.17;2.92;;;;;;;;;;4937705;29;20106;-87
2023/01/23 05:58:03;;;;;;;4.03;3.72;;;;;;;;;;4937595;29;20051;-86
2023/01/23 06:00:30;;;;;;;4.28;4.00;;;;;;;;;;4937142;29;20051;-87
2023/01/23 06:02:58;;;;;;;2.22;1.75;;;;;;;;;;4923847;29;20068;-87
2023/01/23 06:05:24;;;;;;;2.97;2.55;;;;;;;;;;4918755;29;20044;-87
2023/01/23 06:07:51;;;;;;;3.25;3.05;;;;;;;;;;4919190;29;20052;-87
2023/01/23 06:10:17;;;;;;;4.00;3.55;;;;;;;;;;4922617;29;20064;-87
2023/01/23 06:12:44;;;;;;;2.85;2.65;;;;;;;;;;4924659;29;20052;-87
2023/01/23 06:15:11;;;;;;;2.40;2.20;;;;;;;;;;4924584;29;20467;-87
2023/01/23 06:17:37;;;;;;;1.67;1.58;;;;;;;;;;4934934;29;20107;-87
2023/01/23 06:20:06;;;;;;;3.03;2.83;;;;;;;;;;4943954;29;20449;-87
2023/01/23 06:22:32;;;;;;;4.53;3.60;;;;;;;;;;4946106;29;20046;-87
2023/01/23 06:24:59;;;;;;;3.65;3.35;;;;;;;;;;4959112;29;20047;-87
2023/01/23 06:27:25;;;;;;;2.70;2.35;;;;;;;;;;4957271;29;20051;-88
2023/01/23 06:29:52;;;;;;;3.17;2.90;;;;;;;;;;4950813;29;20055;-88
2023/01/23 06:32:18;;;;;;;3.83;3.53;;;;;;;;;;4938429;29;20111;-87
2023/01/23 06:34:45;;;;;;;2.20;2.00;;;;;;;;;;4937035;29;20127;-88
2023/01/23 06:37:15;;;;;;;3.03;2.83;;;;;;;;;;4936747;29;20055;-89
2023/01/23 06:39:41;;;;;;;9.23;8.32;;;;;;;;;;4937039;29;20106;-88
2023/01/23 06:42:11;;;;;;;3.00;2.80;;;;;;;;;;4936628;29;20051;-90
2023/01/23 06:44:37;;;;;;;3.08;2.88;;;;;;;;;;4937060;29;20119;-89
2023/01/23 06:47:04;;;;;;;2.40;2.25;;;;;;;;;;4937225;29;20103;-89
2023/01/23 06:49:30;;;;;;;1.70;1.60;;;;;;;;;;4937445;29;20130;-87
2023/01/23 06:51:57;;;;;;;2.13;1.98;;;;;;;;;;4936875;29;20122;-87
2023/01/23 06:54:25;;;;;;;4.18;3.85;;;;;;;;;;4936384;29;20056;-86
2023/01/23 06:56:51;;;;;;;3.63;3.20;;;;;;;;;;4936789;29;20047;-87
2023/01/23 06:59:18;;;;;;;3.03;2.75;;;;;;;;;;4936233;29;20111;-88
2023/01/23 07:01:44;;;;;;;3.35;2.70;;;;;;;;;;4936288;29;20465;-87
2023/01/23 07:04:11;;;;;;;3.83;3.33;;;;;;;;;;4936568;29;20429;-87
2023/01/23 07:06:37;;;;;;;4.07;3.10;;;;;;;;;;4938974;29;20122;-88
2023/01/23 07:09:04;;;;;;;4.05;3.80;;;;;;;;;;4940472;29;20102;-86
2023/01/23 07:11:32;;;;;;;4.50;4.10;;;;;;;;;;4940252;29;20056;-87
2023/01/23 07:13:58;;;;;;;5.10;4.70;;;;;;;;;;4940461;29;20059;-87
2023/01/23 07:16:25;;;;;;;3.33;2.75;;;;;;;;;;4939690;29;20490;-86
2023/01/23 07:18:52;;;;;;;3.25;3.05;;;;;;;;;;5131921;23;20508;-87
2023/01/23 07:21:19;;;;;;;4.38;3.58;;;;;;;;;;4959606;29;20055;-87
2023/01/23 07:37:11;;;;;;;3.15;2.97;;;;;;;;;;5108532;27;20412;-87
2023/01/23 07:39:38;;;;;;;3.53;3.28;;;;;;;;;;5107746;28;20048;-85
2023/01/23 07:45:08;;;;;;;9.88;3.85;;;;;;;;;;5101184;28;20409;-85
2023/01/23 07:47:35;;;;;;;3.15;2.83;;;;;;;;;;5107974;28;20048;-85
2023/01/23 07:50:01;;;;;;;10.35;9.40;;;;;;;;;;5108618;28;20565;-84
2023/01/23 07:52:29;;;;;;;4.35;4.07;;;;;;;;;;5108395;28;20047;-84
2023/01/23 07:54:55;;;;;;;5.80;5.47;;;;;;;;;;5109061;28;20069;-84
2023/01/23 07:57:22;;;;;;;3.72;3.47;;;;;;;;;;5106045;28;20057;-86
2023/01/23 07:59:48;;;;;;;5.25;4.95;;;;;;;;;;5108080;28;20104;-86
2023/01/23 08:02:15;;;;;;;4.65;4.18;;;;;;;;;;5108490;28;20548;-86
2023/01/23 08:04:41;;;;;;;4.35;3.83;;;;;;;;;;5108677;28;20116;-86
2023/01/23 08:07:08;;;;;;;5.13;4.05;;;;;;;;;;5104933;28;20052;-86
2023/01/23 08:09:36;;;;;;;4.57;3.35;;;;;;;;;;5107573;28;20110;-86
2023/01/23 08:12:02;;;;;;;6.03;5.47;;;;;;;;;;5107468;28;20474;-86
2023/01/23 08:14:29;;;;;;;4.07;3.80;;;;;;;;;;5107995;28;20047;-86
2023/01/23 08:16:55;;;;;;;7.43;4.25;;;;;;;;;;5107792;28;20096;-86
2023/01/23 08:19:24;;;;;;;5.63;5.32;;;;;;;;;;5108252;28;20454;-87
2023/01/23 08:21:50;;;;;;;3.83;3.55;;;;;;;;;;5106251;28;20062;-86
2023/01/23 08:24:17;;;;;;;2.58;2.38;;;;;;;;;;5108103;28;20044;-87
2023/01/23 08:26:45;;;;;;;2.55;2.35;;;;;;;;;;5107168;28;20052;-86
2023/01/23 08:29:11;;;;;;;4.30;3.88;;;;;;;;;;5108601;28;20561;-86
2023/01/23 08:31:38;;;;;;;8.57;6.63;;;;;;;;;;5110095;28;20040;-86
2023/01/23 08:34:05;;;;;;;5.22;4.93;;;;;;;;;;5108459;28;20056;-86
2023/01/23 08:36:31;;;;;;;5.55;5.05;;;;;;;;;;5103167;28;20056;-86
2023/01/23 08:38:59;;;;;;;6.25;5.70;;;;;;;;;;5093482;28;20124;-86
2023/01/23 08:41:25;;;;;;;4.38;4.07;;;;;;;;;;5093938;28;20101;-86
2023/01/23 08:43:53;;;;;;;7.40;6.00;;;;;;;;;;5094616;28;20048;-86
2023/01/23 08:46:20;;;;;;;7.32;5.13;;;;;;;;;;5094411;28;20047;-86
2023/01/23 08:48:46;;;;;;;6.30;5.75;;;;;;;;;;5094431;28;20113;-87
2023/01/23 08:51:14;;;;;;;6.50;5.90;;;;;;;;;;5091118;28;20160;-87
2023/01/23 08:53:40;;;;;;;5.13;4.80;;;;;;;;;;5084742;28;20132;-87
2023/01/23 08:56:08;;;;;;;5.65;5.07;;;;;;;;;;5093270;28;20048;-87
2023/01/23 08:58:34;;;;;;;11.80;11.07;;;;;;;;;;5093478;28;20409;-86
2023/01/23 09:01:02;;;;;;;5.57;4.35;;;;;;;;;;5093907;28;20056;-86
2023/01/23 09:03:29;;;;;;;6.57;5.53;;;;;;;;;;5093336;28;20455;-86
2023/01/23 09:05:55;;;;;;;7.65;7.00;;;;;;;;;;5093332;28;20101;-86
2023/01/23 09:08:22;;;;;;;6.65;6.18;;;;;;;;;;5093081;28;20109;-86
2023/01/23 09:10:48;;;;;;;5.53;4.50;;;;;;;;;;5093643;28;20048;-86
2023/01/23 09:13:15;;;;;;;7.38;4.03;;;;;;;;;;5093423;28;20101;-86
2023/01/23 09:15:41;;;;;;;4.00;3.58;;;;;;;;;;5076690;28;20454;-86
2023/01/23 09:18:09;;;;;;;4.68;4.28;;;;;;;;;;5093590;28;20048;-85
2023/01/23 09:20:37;;;;;;;3.35;3.15;;;;;;;;;;5092870;28;20462;-86
2023/01/23 09:23:03;;;;;;;6.20;5.47;;;;;;;;;;5092895;28;20043;-86
2023/01/23 09:25:31;;;;;;;5.55;5.13;;;;;;;;;;5093041;28;20052;-86
2023/01/23 09:27:57;;;;;;;7.85;7.20;;;;;;;;;;5092996;28;20051;-86
2023/01/23 09:30:24;;;;;;;5.60;4.38;;;;;;;;;;5092826;28;20400;-86
2023/01/23 09:32:50;;;;;;;5.63;5.13;;;;;;;;;;5093529;28;20109;-86
2023/01/23 09:35:18;;;;;;;5.05;4.65;;;;;;;;;;5092440;28;20056;-86
2023/01/23 09:40:32;;;;;;;6.13;5.20;;;;;;;;;;5081523;28;20055;-85
2023/01/23 09:43:01;;;;;;;9.93;7.30;;;;;;;;;;5093250;28;20121;-86
2023/01/23 09:45:28;;;;;;;8.65;7.88;;;;;;;;;;5092253;28;20090;-86
2023/01/23 09:47:57;;;;;;;9.68;7.07;;;;;;;;;;5091974;28;20101;-86
2023/01/23 09:50:27;;;;;;;9.02;8.25;;;;;;;;;;5091791;28;20051;-86
2023/01/23 09:52:58;;;;;;;10.52;8.52;;;;;;;;;;5092732;28;20585;-86
2023/01/23 09:55:31;;;;;;;13.70;6.55;;;;;;;;;;5092506;28;20052;-86
2023/01/23 09:57:59;;;;;;;6.72;6.15;;;;;;;;;;5091344;28;20097;-86
2023/01/23 10:00:28;;;;;;;11.98;8.10;;;;;;;;;;5094561;28;20122;-86
2023/01/23 10:02:55;;;;;;;11.68;8.23;;;;;;;;;;5094838;28;20503;-85
2023/01/23 10:05:26;;;;;;;7.18;6.78;;;;;;;;;;5092275;28;21899;-86
2023/01/23 10:07:52;;;;;;;;;;;;;;;;;;5093380;28;20048;-86
2023/01/23 10:10:34;;;;;;;5.40;4.95;;;;;;;;;;5092524;28;19927;-86
2023/01/23 10:13:04;;;;;;;6.35;5.95;;;;;;;;;;5089086;28;20056;-85
2023/01/23 10:15:33;;;;;;;5.82;5.35;;;;;;;;;;5091701;28;20059;-86
2023/01/23 10:18:04;;;;;;;4.03;3.72;;;;;;;;;;5092349;28;20094;-86
2023/01/23 10:20:43;;;;;;;5.63;4.70;;;;;;;;;;5091664;28;20109;-86
2023/01/23 10:23:18;;;;;;;5.25;4.43;;;;;;;;;;5091912;28;20055;-86
2023/01/23 10:25:45;;;;;;;7.10;4.75;;;;;;;;;;5093278;28;20043;-86
2023/01/23 10:28:23;;;;;;;6.90;6.38;;;;;;;;;;5091257;28;20066;-87
2023/01/23 10:30:52;;;;;;;7.00;6.50;;;;;;;;;;5092907;28;20048;-86
2023/01/23 10:33:19;;;;;;;9.30;5.95;;;;;;;;;;5093910;28;20047;-87
2023/01/23 10:35:49;;;;;;;3.22;3.03;;;;;;;;;;5091438;28;20546;-87
2023/01/23 10:38:22;;;;;;;4.43;3.90;;;;;;;;;;5091944;28;20052;-87
2023/01/23 10:43:34;;;;;;;4.75;4.32;;;;;;;;;;5091393;28;20058;-84
2023/01/23 10:46:02;;;;;;;9.95;9.35;;;;;;;;;;5083690;28;20410;-84
2023/01/23 10:48:30;;;;;;;4.95;4.53;;;;;;;;;;5091482;28;20105;-84
2023/01/23 10:50:57;;;;;;;6.40;5.90;;;;;;;;;;5090904;28;20044;-85
2023/01/23 10:53:24;;;;;;;4.40;4.05;;;;;;;;;;5091372;28;20509;-84
2023/01/23 10:55:51;;;;;;;6.00;5.60;;;;;;;;;;5092867;28;20055;-85
2023/01/23 10:58:28;;;;;;;3.97;3.70;;;;;;;;;;5091508;28;20044;-85
2023/01/23 11:00:56;;;;;;;6.40;6.00;;;;;;;;;;5092286;28;20044;-85
2023/01/23 11:03:26;;;;;;;5.68;5.18;;;;;;;;;;5092344;28;20044;-84
2023/01/23 11:05:53;;;;;;;10.57;5.82;;;;;;;;;;5091593;28;20044;-84
2023/01/23 11:08:24;;;;;;;5.18;4.75;;;;;;;;;;5092116;28;20056;-86
2023/01/23 11:10:51;;;;;;;5.30;4.90;;;;;;;;;;5089211;28;20462;-85
2023/01/23 11:13:27;;;;;;;6.78;6.05;;;;;;;;;;5092236;28;20558;-84
2023/01/23 11:15:54;;;;;;;5.60;5.20;;;;;;;;;;5091147;28;20051;-85
2023/01/23 11:18:32;;;;;;;9.63;8.82;;;;;;;;;;5088221;28;20466;-84
2023/01/23 11:20:59;;;;;;;5.47;4.97;;;;;;;;;;5089757;28;20126;-84
2023/01/23 11:23:26;;;;;;;4.53;4.22;;;;;;;;;;5091540;28;20048;-85
2023/01/23 11:25:53;;;;;;;5.95;5.40;;;;;;;;;;5091013;28;20044;-85
2023/01/23 11:28:22;;;;;;;4.22;3.97;;;;;;;;;;5091817;28;20451;-85
2023/01/23 11:30:50;;;;;;;6.85;6.35;;;;;;;;;;5091852;28;20493;-85
2023/01/23 11:33:22;;;;;;;6.20;5.65;;;;;;;;;;5092396;28;20048;-85
2023/01/23 11:36:00;;;;;;;7.85;7.25;;;;;;;;;;5087414;28;20044;-85
2023/01/23 11:38:28;;;;;;;6.38;5.88;;;;;;;;;;5091477;28;20120;-84
2023/01/23 11:40:54;;;;;;;8.02;7.35;;;;;;;;;;5091018;28;20105;-85
2023/01/23 11:43:21;;;;;;;7.38;6.40;;;;;;;;;;5091111;28;20098;-85
2023/01/23 11:45:54;;;;;;;8.25;7.45;;;;;;;;;;5090632;28;20065;-85
2023/01/23 11:48:28;;;;;;;6.45;5.93;;;;;;;;;;5089647;28;20565;-85
2023/01/23 11:51:00;;;;;;;6.05;5.28;;;;;;;;;;5090472;28;20098;-85
2023/01/23 11:53:32;;;;;;;7.07;6.18;;;;;;;;;;5090655;28;20048;-85
2023/01/23 11:56:11;;;;;;;10.65;6.03;;;;;;;;;;5090600;28;20102;-85
2023/01/23 11:58:50;;;;;;;9.77;8.90;;;;;;;;;;5090580;28;20455;-84
2023/01/23 12:01:20;;;;;;;11.85;11.07;;;;;;;;;;5090865;28;20459;-84
2023/01/23 12:04:01;;;;;;;5.20;4.85;;;;;;;;;;5074297;28;20093;-85
2023/01/23 12:06:39;;;;;;;6.53;6.00;;;;;;;;;;5086568;28;20097;-85
2023/01/23 12:09:09;;;;;;;5.75;5.25;;;;;;;;;;5090158;28;20060;-84
2023/01/23 12:11:39;;;;;;;7.80;7.10;;;;;;;;;;5090301;28;20112;-85
2023/01/23 12:14:12;;;;;;;6.60;6.07;;;;;;;;;;5094914;28;20052;-85
2023/01/23 12:17:00;;;;;;;5.88;5.47;;;;;;;;;;5084570;28;20485;-85
2023/01/23 12:19:34;;;;;;;9.93;9.02;;;;;;;;;;5092392;28;20105;-85
2023/01/23 12:22:05;;;;;;;7.05;6.45;;;;;;;;;;5079972;28;20044;-85
2023/01/23 12:24:39;;;;;;;12.38;11.00;;;;;;;;;;5094403;28;20432;-86
2023/01/23 12:27:12;;;;;;;6.78;5.97;;;;;;;;;;5094278;28;20048;-85
2023/01/23 12:29:47;;;;;;;7.05;5.07;;;;;;;;;;5095971;28;20044;-85
2023/01/23 12:32:20;;;;;;;6.32;5.53;;;;;;;;;;5094294;28;20473;-85
2023/01/23 12:34:56;;;;;;;7.55;4.95;;;;;;;;;;5094658;28;20052;-85
2023/01/23 12:37:30;;;;;;;6.13;5.43;;;;;;;;;;5093944;28;20040;-85
2023/01/23 12:40:09;;;;;;;9.88;7.65;;;;;;;;;;5094000;28;20050;-84
2023/01/23 12:42:40;;;;;;;7.40;6.03;;;;;;;;;;5094113;28;20105;-86
2023/01/23 12:45:13;;;;;;;5.13;4.68;;;;;;;;;;5093639;28;20501;-85
2023/01/23 12:47:42;;;;;;;8.68;6.85;;;;;;;;;;5093396;28;20044;-85
2023/01/23 12:50:16;;;;;;;7.13;5.47;;;;;;;;;;5089890;28;20043;-85
2023/01/23 12:52:46;;;;;;;5.85;5.32;;;;;;;;;;5093627;28;20044;-85
2023/01/23 12:55:17;;;;;;;11.57;8.73;;;;;;;;;;5092447;28;20102;-85
2023/01/23 12:57:50;;;;;;;7.72;6.35;;;;;;;;;;5083650;28;20040;-85
2023/01/23 13:00:21;;;;;;;8.18;7.63;;;;;;;;;;5092622;28;20044;-86
2023/01/23 13:02:53;;;;;;;5.97;4.95;;;;;;;;;;5093060;28;20056;-86
2023/01/23 13:05:23;;;;;;;8.63;5.50;;;;;;;;;;5092813;28;20048;-86
2023/01/23 13:07:54;;;;;;;7.03;6.35;;;;;;;;;;5092889;28;20497;-86
2023/01/23 13:11:39;;;;;;;5.82;5.38;;;;;;;;;;5092854;28;20039;-86
2023/01/23 13:13:16;;;;;;;;;;;;;;;;;;5093434;28;20408;-86
2023/01/23 13:15:43;;;;;;;8.82;8.02;;;;;;;;;;5093455;28;19920;-86
2023/01/23 13:18:21;;;;;;;7.55;5.85;;;;;;;;;;5092677;28;20048;-86
2023/01/23 13:23:38;;;;;;;8.90;6.15;;;;;;;;;;5079086;28;20059;-85
2023/01/23 13:26:23;;;;;;;7.35;5.78;;;;;;;;;;5093640;28;20101;-85
2023/01/23 13:28:53;;;;;;;8.68;7.97;;;;;;;;;;5093293;28;20052;-86
2023/01/23 13:31:24;;;;;;;5.78;5.28;;;;;;;;;;5092815;28;20047;-86
2023/01/23 13:33:54;;;;;;;11.27;10.68;;;;;;;;;;5093352;28;20051;-86
2023/01/23 13:36:25;;;;;;;6.22;5.70;;;;;;;;;;5092894;28;20485;-85
2023/01/23 13:39:10;;;;;;;6.13;4.50;;;;;;;;;;5092960;28;20051;-85
2023/01/23 13:41:37;;;;;;;7.28;6.80;;;;;;;;;;5084794;28;20132;-84
2023/01/23 13:44:05;;;;;;;8.15;7.22;;;;;;;;;;5092871;28;20522;-85
2023/01/23 13:46:44;;;;;;;6.13;5.72;;;;;;;;;;5093442;28;20390;-85
2023/01/23 14:13:12;;;;;;;7.75;7.00;;;;;;;;;;5131091;27;20650;-88
2023/01/23 14:18:29;;;;;;;6.40;6.00;;;;;;;;;;5132061;28;20076;-88
2023/01/23 14:21:00;;;;;;;5.78;5.25;;;;;;;;;;5131889;28;20048;-88
2023/01/23 14:23:28;;;;;;;5.75;4.13;;;;;;;;;;5131645;28;20044;-88
2023/01/23 14:25:55;;;;;;;5.50;5.10;;;;;;;;;;5133170;28;20147;-89
2023/01/23 14:28:23;;;;;;;6.85;5.38;;;;;;;;;;5133698;28;20044;-88
2023/01/23 14:30:53;;;;;;;4.45;4.15;;;;;;;;;;5132329;28;20539;-88
2023/01/23 14:33:19;;;;;;;5.28;4.72;;;;;;;;;;5119502;28;20127;-88
2023/01/23 14:35:46;;;;;;;4.28;3.80;;;;;;;;;;5092360;28;20481;-89
2023/01/23 14:38:16;;;;;;;4.68;3.95;;;;;;;;;;5090722;28;20404;-89
2023/01/23 14:40:43;;;;;;;5.15;4.75;;;;;;;;;;5090910;28;20048;-89
2023/01/23 14:43:13;;;;;;;6.00;5.47;;;;;;;;;;5099394;28;20043;-89
2023/01/23 14:45:46;;;;;;;4.95;4.32;;;;;;;;;;5111270;28;20081;-88
2023/01/23 14:48:14;;;;;;;5.10;4.68;;;;;;;;;;5103838;28;20131;-89
2023/01/23 14:50:41;;;;;;;4.70;4.32;;;;;;;;;;5091888;28;20051;-90
2023/01/23 14:53:16;;;;;;;4.47;4.13;;;;;;;;;;5093473;28;20105;-89
2023/01/23 14:55:45;;;;;;;7.18;6.47;;;;;;;;;;5090039;28;20048;-89
2023/01/23 14:58:13;;;;;;;5.13;4.65;;;;;;;;;;5089982;28;20048;-89
2023/01/23 15:00:41;;;;;;;4.13;3.42;;;;;;;;;;5089037;28;20469;-89
2023/01/23 15:03:12;;;;;;;5.47;4.40;;;;;;;;;;5076138;28;20497;-89
2023/01/23 15:05:40;;;;;;;4.35;3.97;;;;;;;;;;5076075;28;20044;-89
2023/01/23 15:08:17;;;;;;;5.68;5.13;;;;;;;;;;5076307;28;20067;-88
2023/01/23 15:10:44;;;;;;;6.28;5.60;;;;;;;;;;5076311;28;20049;-88
2023/01/23 15:13:12;;;;;;;5.68;4.88;;;;;;;;;;5076376;28;20048;-89
2023/01/23 15:15:44;;;;;;;4.57;3.80;;;;;;;;;;5076762;28;20048;-88
2023/01/23 15:18:19;;;;;;;6.35;5.60;;;;;;;;;;5076282;28;20053;-88
2023/01/23 15:20:52;;;;;;;6.72;5.28;;;;;;;;;;5076604;28;20045;-89
2023/01/23 15:23:30;;;;;;;4.18;3.97;;;;;;;;;;5076305;28;20044;-88
2023/01/23 15:26:21;;;;;;;5.90;3.85;;;;;;;;;;5076536;28;20519;-88
2023/01/23 15:28:49;;;;;;;3.67;2.95;;;;;;;;;;5076407;28;20107;-89
2023/01/23 15:31:24;;;;;;;4.55;4.25;;;;;;;;;;5075519;28;20098;-88
2023/01/23 15:33:52;;;;;;;3.95;3.65;;;;;;;;;;5076236;28;20578;-88
2023/01/23 15:36:24;;;;;;;5.15;4.63;;;;;;;;;;5075446;28;20064;-88
2023/01/23 15:38:50;;;;;;;6.63;6.00;;;;;;;;;;5076159;28;20566;-88
2023/01/23 15:41:17;;;;;;;4.38;2.45;;;;;;;;;;5075575;28;20049;-88
2023/01/23 15:43:43;;;;;;;3.00;2.78;;;;;;;;;;5075944;28;20094;-88
2023/01/23 15:46:10;;;;;;;6.25;5.85;;;;;;;;;;5074825;28;20458;-89
2023/01/23 15:48:37;;;;;;;4.13;3.83;;;;;;;;;;5075579;28;20477;-87